Time;durP1;ratioP1;P1;durP2;ratioP2;P2;SDS_P1;SDS_P2;PMS_P1;PMS_P2;Temp;Humidity;BMP_temperature;BMP_pressure;BME280_temperature;BME280_humidity;BME280_pressure;Samples;Min_cycle;Max_cycle;Signal;HPM_P1;HPM_P2
2022/08/29 00:01:01;;;;;;;2.43;1.47;;;;;;;18.56;53.26;99139.97;5116573;27;40427;-80
2022/08/29 00:03:29;;;;;;;3.03;1.20;;;;;;;18.56;53.48;99139.97;5134567;27;42546;-81
2022/08/29 00:05:57;;;;;;;2.73;1.40;;;;;;;18.48;53.19;99137.13;5134670;27;43872;-80
2022/08/29 00:08:24;;;;;;;4.40;1.53;;;;;;;18.41;53.37;99119.91;5133025;27;41340;-79
2022/08/29 00:10:52;;;;;;;4.43;1.57;;;;;;;18.48;53.79;99126.41;5134926;27;40781;-81
2022/08/29 00:13:21;;;;;;;2.53;1.70;;;;;;;18.58;53.55;99143.38;5133004;27;42858;-79
2022/08/29 00:15:48;;;;;;;3.27;1.80;;;;;;;18.56;53.76;99134.59;5133481;27;43106;-79
2022/08/29 00:18:19;;;;;;;2.60;1.20;;;;;;;18.57;53.46;99144.34;5115995;27;42128;-80
2022/08/29 00:20:47;;;;;;;5.13;1.23;;;;;;;18.55;53.45;99139.09;5130670;27;40528;-81
2022/08/29 00:23:15;;;;;;;4.20;1.53;;;;;;;18.52;53.71;99133.19;5133054;27;42486;-77
2022/08/29 00:25:43;;;;;;;3.00;1.33;;;;;;;18.50;53.52;99137.84;5134009;27;43819;-81
2022/08/29 00:28:10;;;;;;;2.27;1.20;;;;;;;18.43;53.68;99121.44;5115696;27;41045;-80
2022/08/29 00:30:38;;;;;;;2.53;1.30;;;;;;;18.42;53.69;99143.06;5133489;27;39701;-77
2022/08/29 00:33:06;;;;;;;1.97;1.50;;;;;;;18.41;53.55;99138.69;5132921;27;41608;-79
2022/08/29 00:35:38;;;;;;;2.97;1.20;;;;;;;18.34;53.91;99135.69;5132703;27;41717;-78
2022/08/29 00:38:08;;;;;;;1.63;1.30;;;;;;;18.26;53.87;99133.72;5132627;27;41460;-80
2022/08/29 00:40:41;;;;;;;1.53;1.07;;;;;;;18.29;53.89;99144.16;5134387;27;40668;-78
2022/08/29 00:43:09;;;;;;;2.93;1.20;;;;;;;18.25;54.33;99140.06;5115726;27;40451;-79
2022/08/29 00:45:39;;;;;;;1.20;0.93;;;;;;;18.22;54.22;99140.31;5115592;27;44212;-80
2022/08/29 00:48:10;;;;;;;4.10;1.30;;;;;;;18.19;54.38;99134.38;5115333;27;41985;-78
2022/08/29 00:50:43;;;;;;;2.20;1.57;;;;;;;18.09;53.97;99126.31;5130169;27;40944;-81
2022/08/29 00:53:15;;;;;;;2.93;1.30;;;;;;;18.00;54.41;99120.94;5115391;27;41177;-77
2022/08/29 00:55:46;;;;;;;3.70;1.30;;;;;;;18.07;54.08;99144.38;5115712;27;42761;-78
2022/08/29 00:58:21;;;;;;;3.53;1.30;;;;;;;18.04;54.63;99155.38;5131832;27;42202;-79
2022/08/29 01:00:49;;;;;;;2.63;1.03;;;;;;;18.01;54.96;99160.16;5115657;27;39210;-79
2022/08/29 01:03:17;;;;;;;2.33;1.10;;;;;;;17.94;54.64;99154.47;5132241;27;42005;-81
2022/08/29 01:05:46;;;;;;;2.97;1.50;;;;;;;17.82;54.75;99139.47;5132677;27;42651;-80
2022/08/29 01:08:14;;;;;;;2.33;1.30;;;;;;;17.80;55.03;99144.97;5133028;27;42275;-81
2022/08/29 01:13:32;;;;;;;2.13;1.03;;;;;;;17.77;54.98;99152.44;5133585;27;41403;-80
2022/08/29 01:16:02;;;;;;;1.33;1.10;;;;;;;17.67;55.00;99140.84;5132464;27;42947;-78
2022/08/29 01:18:32;;;;;;;2.93;1.20;;;;;;;17.58;55.02;99134.41;5132130;27;43280;-79
2022/08/29 01:21:12;;;;;;;2.40;1.30;;;;;;;17.70;55.38;99156.63;5115179;27;38956;-80
2022/08/29 01:23:45;;;;;;;1.40;1.30;;;;;;;17.66;55.26;99160.56;5130394;27;41684;-80
2022/08/29 01:26:14;;;;;;;1.93;1.10;;;;;;;17.63;55.02;99166.16;5131994;27;41789;-78
2022/08/29 01:28:45;;;;;;;1.63;1.03;;;;;;;17.58;55.42;99161.19;5114393;27;43029;-80
2022/08/29 01:31:15;;;;;;;2.10;0.93;;;;;;;17.54;55.81;99154.41;5113734;27;41076;-77
2022/08/29 01:33:45;;;;;;;1.80;1.20;;;;;;;17.51;55.84;99160.88;5115062;27;42305;-81
2022/08/29 01:36:16;;;;;;;2.33;1.50;;;;;;;17.47;56.04;99156.75;5132181;27;42708;-78
2022/08/29 01:38:44;;;;;;;2.23;1.50;;;;;;;17.32;56.25;99131.28;5132136;27;43317;-79
2022/08/29 01:41:12;;;;;;;3.50;1.50;;;;;;;17.40;56.24;99150.25;5131875;27;39753;-81
2022/08/29 01:43:44;;;;;;;2.07;1.40;;;;;;;17.22;56.40;99127.69;5132056;27;40512;-78
2022/08/29 01:46:14;;;;;;;2.60;1.20;;;;;;;17.35;56.47;99157.81;5115049;27;41484;-79
2022/08/29 01:48:44;;;;;;;2.33;1.23;;;;;;;17.19;56.33;99127.97;5132290;27;42355;-79
2022/08/29 01:51:13;;;;;;;2.60;1.00;;;;;;;17.29;56.81;99144.97;5131892;27;38763;-79
2022/08/29 01:53:41;;;;;;;2.03;1.40;;;;;;;17.26;56.20;99147.88;5114428;27;41779;-81
2022/08/29 01:56:11;;;;;;;2.80;1.20;;;;;;;17.18;56.39;99145.84;5131670;27;43777;-81
2022/08/29 01:58:39;;;;;;;1.57;0.97;;;;;;;17.20;56.30;99159.09;5132115;27;42990;-80
2022/08/29 02:01:10;;;;;;;1.77;1.10;;;;;;;17.17;56.52;99154.03;5114280;27;39316;-78
2022/08/29 02:03:38;;;;;;;2.03;1.17;;;;;;;17.13;56.31;99163.28;5133524;27;41605;-80
2022/08/29 02:06:08;;;;;;;1.70;1.17;;;;;;;17.08;56.70;99160.13;5114795;27;41804;-78
2022/08/29 02:08:36;;;;;;;3.77;1.50;;;;;;;17.04;56.64;99161.41;5132927;27;43133;-81
2022/08/29 02:11:08;;;;;;;1.87;1.27;;;;;;;17.03;56.72;99167.72;5114585;27;39809;-78
2022/08/29 02:13:36;;;;;;;4.60;1.20;;;;;;;17.01;56.73;99169.69;5114936;27;40987;-80
2022/08/29 02:16:04;;;;;;;1.23;1.00;;;;;;;16.98;56.98;99169.91;5131916;27;42521;-79
2022/08/29 02:18:33;;;;;;;1.30;1.20;;;;;;;16.94;57.16;99168.50;5114164;27;41306;-79
2022/08/29 02:21:03;;;;;;;2.40;1.40;;;;;;;16.91;57.06;99166.06;5114166;27;40611;-80
2022/08/29 02:23:30;;;;;;;2.83;1.60;;;;;;;16.87;57.00;99158.31;5131935;27;41962;-81
2022/08/29 02:25:58;;;;;;;4.40;1.40;;;;;;;16.84;57.06;99152.34;5131807;27;42386;-79
2022/08/29 02:28:26;;;;;;;3.30;1.53;;;;;;;16.82;57.02;99159.66;5132819;27;42709;-77
2022/08/29 02:30:55;;;;;;;3.53;1.57;;;;;;;16.68;57.73;99135.91;5133081;27;39894;-79
2022/08/29 02:33:22;;;;;;;2.57;1.40;;;;;;;16.77;57.41;99157.38;5131691;27;42702;-80
2022/08/29 02:35:53;;;;;;;1.60;1.37;;;;;;;16.75;57.71;99155.78;5114530;27;41383;-79
2022/08/29 02:38:21;;;;;;;4.13;1.53;;;;;;;16.73;57.68;99155.06;5114161;27;41439;-78
2022/08/29 02:40:49;;;;;;;3.40;1.60;;;;;;;16.64;57.91;99139.78;5114588;27;38989;-79
2022/08/29 02:43:18;;;;;;;1.77;1.30;;;;;;;16.54;58.18;99134.34;5133772;27;41696;-78
2022/08/29 02:45:46;;;;;;;2.77;1.40;;;;;;;16.64;58.08;99161.19;5117925;27;44461;-78
2022/08/29 02:48:15;;;;;;;3.63;1.37;;;;;;;16.62;58.49;99160.44;5134782;27;42270;-79
2022/08/29 02:50:44;;;;;;;3.57;1.43;;;;;;;16.58;58.50;99157.16;5135105;27;40080;-81
2022/08/29 02:53:16;;;;;;;5.50;1.50;;;;;;;16.57;58.66;99162.66;5134577;27;41697;-78
2022/08/29 02:55:43;;;;;;;2.23;1.57;;;;;;;16.54;58.68;99158.41;5134704;27;45032;-79
2022/08/29 02:58:12;;;;;;;3.70;1.40;;;;;;;16.46;58.41;99145.63;5116959;27;41250;-78
2022/08/29 03:00:41;;;;;;;3.10;1.37;;;;;;;16.50;58.73;99165.81;5134994;27;40901;-78
2022/08/29 03:03:09;;;;;;;2.73;1.60;;;;;;;16.47;58.72;99159.84;5134253;27;42509;-81
2022/08/29 03:05:37;;;;;;;3.00;1.60;;;;;;;16.39;58.75;99154.28;5134634;27;43795;-81
2022/08/29 03:08:09;;;;;;;2.30;1.40;;;;;;;16.45;58.80;99161.81;5134074;27;41569;-79
2022/08/29 03:10:38;;;;;;;2.60;1.10;;;;;;;16.32;59.16;99139.75;5134541;27;41337;-78
2022/08/29 03:13:06;;;;;;;2.93;1.63;;;;;;;16.43;59.07;99161.09;5117259;27;42077;-77
2022/08/29 03:15:33;;;;;;;4.00;1.80;;;;;;;16.39;59.44;99152.47;5117303;27;41795;-81
2022/08/29 03:18:01;;;;;;;3.83;1.70;;;;;;;16.38;59.31;99160.63;5134450;27;42964;-80
2022/08/29 03:20:29;;;;;;;2.73;1.40;;;;;;;16.37;59.69;99164.25;5117430;27;38850;-80
2022/08/29 03:22:56;;;;;;;2.23;1.13;;;;;;;16.30;59.42;99157.72;5134380;27;40969;-78
2022/08/29 03:25:25;;;;;;;2.30;1.40;;;;;;;16.33;59.71;99168.16;5135572;27;42600;-80
2022/08/29 03:27:54;;;;;;;3.00;1.40;;;;;;;16.30;59.57;99163.91;5135416;27;42093;-78
2022/08/29 03:30:22;;;;;;;2.73;1.40;;;;;;;16.23;59.52;99151.16;5117118;27;38887;-78
2022/08/29 03:32:50;;;;;;;3.20;1.60;;;;;;;16.26;59.33;99166.97;5133565;27;40882;-80
2022/08/29 03:35:18;;;;;;;3.00;1.20;;;;;;;16.26;59.50;99172.31;5133744;27;43789;-79
2022/08/29 03:37:46;;;;;;;1.90;1.70;;;;;;;16.23;59.55;99169.88;5116169;27;41667;-81
2022/08/29 03:40:14;;;;;;;4.57;1.33;;;;;;;16.20;59.53;99167.44;5134370;27;39974;-81
2022/08/29 03:42:43;;;;;;;2.20;1.10;;;;;;;16.16;59.41;99167.72;5133746;27;40606;-80
2022/08/29 03:45:16;;;;;;;2.13;1.20;;;;;;;16.15;59.50;99171.34;5116659;27;43662;-78
2022/08/29 03:47:44;;;;;;;2.13;1.23;;;;;;;16.12;59.66;99166.25;5116360;27;41483;-80
2022/08/29 03:50:13;;;;;;;1.67;1.37;;;;;;;16.09;59.57;99165.63;5116684;27;38946;-82
2022/08/29 03:52:42;;;;;;;1.40;1.30;;;;;;;16.07;60.04;99163.06;5133698;27;41469;-78
2022/08/29 03:55:10;;;;;;;1.93;1.70;;;;;;;16.03;60.24;99161.66;5133762;27;43820;-80
2022/08/29 03:57:39;;;;;;;1.63;1.33;;;;;;;16.02;60.35;99159.09;5115508;27;42250;-78
2022/08/29 04:00:14;;;;;;;1.93;1.40;;;;;;;15.98;60.00;99174.50;5134029;27;40841;-79
2022/08/29 04:02:45;;;;;;;2.37;1.37;;;;;;;15.97;59.91;99174.63;5132370;27;41776;-80
2022/08/29 04:05:14;;;;;;;1.80;1.27;;;;;;;15.85;60.05;99152.41;5134173;27;42496;-79
2022/08/29 04:07:48;;;;;;;1.97;1.20;;;;;;;15.90;60.20;99168.09;5133276;27;42235;-79
2022/08/29 04:10:19;;;;;;;1.63;1.50;;;;;;;15.87;60.10;99171.84;5133614;27;38811;-80
2022/08/29 04:12:47;;;;;;;1.97;1.07;;;;;;;15.82;60.55;99164.19;5132585;27;41816;-79
2022/08/29 04:15:15;;;;;;;2.57;1.50;;;;;;;15.83;60.20;99170.38;5133642;27;42728;-81
2022/08/29 04:17:44;;;;;;;3.70;1.37;;;;;;;15.83;60.15;99170.38;5115845;27;41882;-79
2022/08/29 04:20:14;;;;;;;1.80;1.20;;;;;;;15.72;60.12;99168.56;5133435;27;39352;-77
2022/08/29 04:22:43;;;;;;;5.23;1.60;;;;;;;15.79;60.26;99184.97;5132459;27;42663;-77
2022/08/29 04:25:13;;;;;;;2.53;1.57;;;;;;;15.76;60.53;99179.84;5115999;27;42090;-78
2022/08/29 04:27:42;;;;;;;2.17;1.53;;;;;;;15.74;61.01;99179.97;5133022;27;43520;-80
2022/08/29 04:30:13;;;;;;;2.67;1.73;;;;;;;15.68;60.95;99171.59;5132700;27;39619;-78
2022/08/29 04:32:41;;;;;;;2.43;1.40;;;;;;;15.72;60.86;99187.25;5132913;27;42553;-80
2022/08/29 04:35:12;;;;;;;1.97;1.37;;;;;;;15.71;61.11;99185.53;5134163;27;44064;-80
2022/08/29 04:37:40;;;;;;;2.43;1.50;;;;;;;15.70;61.20;99191.03;5133083;27;42366;-78
2022/08/29 04:40:10;;;;;;;2.70;1.53;;;;;;;15.68;61.24;99187.63;5134368;27;40014;-79
2022/08/29 04:42:38;;;;;;;2.27;1.30;;;;;;;15.69;61.46;99195.53;5115500;27;40908;-78
2022/08/29 04:45:10;;;;;;;1.57;1.33;;;;;;;15.70;61.41;99201.72;5133046;27;43918;-78
2022/08/29 04:47:39;;;;;;;3.30;1.70;;;;;;;15.70;61.58;99199.03;5131549;27;42387;-78
2022/08/29 04:50:09;;;;;;;3.33;1.50;;;;;;;15.63;61.53;99190.63;5134035;27;40951;-78
2022/08/29 04:52:38;;;;;;;3.80;1.47;;;;;;;15.69;61.36;99200.84;5132772;27;42793;-81
2022/08/29 04:55:07;;;;;;;2.20;1.33;;;;;;;15.72;61.37;99210.41;5132955;27;42989;-80
2022/08/29 04:57:37;;;;;;;4.00;1.80;;;;;;;15.61;61.23;99191.72;5132363;27;42270;-82
2022/08/29 05:00:07;;;;;;;2.67;1.10;;;;;;;15.74;60.88;99219.16;5132620;27;38478;-80
2022/08/29 05:02:35;;;;;;;3.87;1.60;;;;;;;15.75;60.65;99215.53;5132373;27;41949;-81
2022/08/29 05:05:03;;;;;;;2.07;1.10;;;;;;;15.79;60.93;99225.00;5132529;27;41725;-78
2022/08/29 05:07:31;;;;;;;2.03;1.33;;;;;;;15.84;60.73;99225.50;5114977;27;41184;-79
2022/08/29 05:10:03;;;;;;;1.33;1.13;;;;;;;15.90;60.61;99225.03;5131898;27;40037;-81
2022/08/29 05:12:32;;;;;;;2.30;1.37;;;;;;;15.96;60.72;99235.22;5131899;27;42144;-81
2022/08/29 05:15:00;;;;;;;2.30;1.40;;;;;;;16.03;60.21;99239.13;5132814;27;41470;-80
2022/08/29 05:17:28;;;;;;;1.43;1.00;;;;;;;16.10;60.19;99232.31;5132748;27;42265;-81
2022/08/29 05:19:56;;;;;;;1.73;1.20;;;;;;;16.17;60.21;99238.03;5132793;27;41298;-82
2022/08/29 05:22:23;;;;;;;2.07;1.30;;;;;;;16.24;60.35;99233.03;5132226;27;41403;-80
2022/08/29 05:24:52;;;;;;;1.80;1.50;;;;;;;16.33;59.76;99242.97;5114970;27;44606;-78
2022/08/29 05:27:22;;;;;;;1.57;1.30;;;;;;;16.45;59.63;99242.84;5114700;27;42171;-78
2022/08/29 05:29:52;;;;;;;2.30;1.50;;;;;;;16.61;59.35;99242.47;5115630;27;40309;-79
2022/08/29 05:32:20;;;;;;;2.93;1.93;;;;;;;16.78;58.99;99236.66;5133045;27;41834;-78
2022/08/29 05:34:49;;;;;;;2.87;1.63;;;;;;;16.97;59.12;99232.44;5133327;27;43743;-78
2022/08/29 05:37:20;;;;;;;2.50;1.23;;;;;;;17.13;59.36;99227.53;5114379;27;43259;-79
2022/08/29 05:39:49;;;;;;;3.33;1.60;;;;;;;17.25;59.19;99234.53;5129245;27;41074;-78
2022/08/29 05:42:18;;;;;;;3.57;1.70;;;;;;;17.27;58.91;99216.50;5114633;27;40796;-80
2022/08/29 05:44:48;;;;;;;2.10;1.90;;;;;;;17.45;58.84;99243.53;5115023;27;43512;-78
2022/08/29 05:47:17;;;;;;;2.83;1.40;;;;;;;17.51;58.59;99241.22;5132108;27;41329;-81
2022/08/29 05:49:46;;;;;;;3.23;1.47;;;;;;;17.58;58.33;99234.34;5132361;27;40980;-78
2022/08/29 05:52:16;;;;;;;4.20;1.40;;;;;;;17.69;58.26;99240.63;5131922;27;42317;-80
2022/08/29 05:54:45;;;;;;;3.27;1.57;;;;;;;17.78;58.01;99230.00;5132170;27;43247;-78
2022/08/29 05:57:15;;;;;;;3.50;1.60;;;;;;;17.83;58.21;99234.94;5131585;27;43340;-78
2022/08/29 05:59:42;;;;;;;2.83;1.60;;;;;;;17.81;57.83;99231.53;5131914;27;38926;-79
2022/08/29 06:02:12;;;;;;;2.10;1.20;;;;;;;17.91;57.68;99236.00;5092603;27;40638;-85
2022/08/29 06:04:40;;;;;;;2.87;1.17;;;;;;;18.18;57.28;99248.81;5112162;27;41880;-83
2022/08/29 06:07:08;;;;;;;5.00;1.43;;;;;;;18.68;56.32;99251.56;5129172;27;42721;-81
2022/08/29 06:09:37;;;;;;;2.17;1.60;;;;;;;19.38;54.76;99269.31;5132687;27;40129;-84
2022/08/29 06:12:07;;;;;;;4.40;2.10;;;;;;;19.82;53.17;99275.94;5131862;27;41496;-82
2022/08/29 06:14:44;;;;;;;2.77;1.50;;;;;;;19.74;52.76;99259.72;5115214;27;42568;-88
2022/08/29 06:17:13;;;;;;;3.03;1.70;;;;;;;19.72;52.82;99281.34;5114236;27;41316;-85
2022/08/29 06:19:41;;;;;;;2.10;1.47;;;;;;;19.72;52.68;99280.50;5135693;27;39234;-85
2022/08/29 06:22:10;;;;;;;2.87;1.73;;;;;;;19.85;53.07;99277.50;5134201;27;40896;-81
2022/08/29 06:24:38;;;;;;;2.73;1.30;;;;;;;20.15;52.19;99284.53;5118336;27;41518;-84
2022/08/29 06:27:07;;;;;;;2.17;1.40;;;;;;;20.48;51.37;99285.84;5134890;27;41202;-83
2022/08/29 06:29:35;;;;;;;3.40;1.67;;;;;;;20.69;50.26;99281.06;5135943;27;41946;-85
2022/08/29 06:32:03;;;;;;;2.43;1.43;;;;;;;20.84;50.74;99301.09;5117676;27;42075;-86
2022/08/29 06:34:32;;;;;;;3.00;1.53;;;;;;;20.77;50.60;99289.25;5135918;27;41618;-87
2022/08/29 06:37:00;;;;;;;2.77;1.77;;;;;;;20.60;50.31;99276.59;5134437;27;43340;-82
2022/08/29 06:39:28;;;;;;;3.90;1.63;;;;;;;20.61;50.47;99294.44;5135615;27;39185;-85
2022/08/29 06:41:56;;;;;;;1.97;1.57;;;;;;;20.57;50.13;99298.41;5117707;27;40632;-86
2022/08/29 06:44:25;;;;;;;2.20;1.73;;;;;;;20.62;51.08;99296.13;5118242;27;41551;-82
2022/08/29 06:46:52;;;;;;;3.40;1.97;;;;;;;20.66;51.08;99297.50;5135436;27;42294;-84
2022/08/29 06:49:20;;;;;;;3.93;1.50;;;;;;;20.74;50.59;99294.94;5135708;27;40938;-82
2022/08/29 06:51:51;;;;;;;3.37;1.47;;;;;;;20.82;50.46;99303.09;5115244;27;40641;-84
2022/08/29 06:54:20;;;;;;;3.77;1.87;;;;;;;20.96;49.15;99310.69;5134297;27;44367;-81
2022/08/29 06:56:48;;;;;;;2.57;1.53;;;;;;;21.15;48.89;99315.94;5133872;27;42171;-83
2022/08/29 06:59:16;;;;;;;3.30;1.70;;;;;;;21.17;49.17;99295.09;5135562;27;39775;-80
2022/08/29 07:01:45;;;;;;;4.43;1.83;;;;;;;21.36;49.07;99314.84;5134069;27;41695;-81
2022/08/29 07:04:14;;;;;;;2.53;1.53;;;;;;;21.40;49.28;99308.13;5134784;27;43721;-86
2022/08/29 07:06:42;;;;;;;5.17;1.83;;;;;;;21.38;48.61;99299.38;5117038;27;42533;-83
2022/08/29 07:09:12;;;;;;;4.17;2.20;;;;;;;21.56;48.38;99329.88;5117763;27;41548;-84
2022/08/29 07:11:41;;;;;;;2.00;1.27;;;;;;;21.73;48.17;99320.94;5133974;27;41762;-84
2022/08/29 07:14:09;;;;;;;2.17;1.50;;;;;;;22.02;47.56;99325.22;5117527;27;43326;-81
2022/08/29 07:16:37;;;;;;;3.23;1.57;;;;;;;22.16;47.13;99321.94;5133739;27;41569;-81
2022/08/29 07:19:06;;;;;;;3.30;1.30;;;;;;;22.33;47.84;99323.78;5135200;27;41187;-82
2022/08/29 07:21:34;;;;;;;2.87;1.70;;;;;;;22.49;47.75;99328.44;5134026;27;41771;-81
2022/08/29 07:24:03;;;;;;;3.13;1.70;;;;;;;22.63;46.74;99330.50;5134769;27;41942;-83
2022/08/29 07:26:37;;;;;;;2.37;1.87;;;;;;;22.90;47.33;99342.97;5117192;27;43383;-83
2022/08/29 07:29:08;;;;;;;4.90;1.93;;;;;;;22.98;47.79;99329.53;5132175;27;39940;-83
2022/08/29 07:31:37;;;;;;;3.70;1.60;;;;;;;23.05;47.05;99335.97;5117176;27;43204;-85
2022/08/29 07:34:05;;;;;;;3.23;1.70;;;;;;;23.20;48.10;99328.94;5117186;27;41693;-81
2022/08/29 07:36:34;;;;;;;3.07;1.60;;;;;;;23.42;46.66;99332.00;5116397;27;42331;-83
2022/08/29 07:39:04;;;;;;;2.67;1.70;;;;;;;23.57;45.51;99335.78;5134240;27;39898;-86
2022/08/29 07:41:34;;;;;;;4.93;1.60;;;;;;;23.83;44.90;99347.31;5133060;27;42600;-88
2022/08/29 07:44:02;;;;;;;2.80;1.30;;;;;;;24.12;45.24;99340.53;5117202;27;43302;-86
2022/08/29 07:46:30;;;;;;;2.20;2.00;;;;;;;24.39;45.43;99323.94;5116179;27;41762;-84
2022/08/29 07:48:59;;;;;;;3.87;2.00;;;;;;;24.54;44.22;99324.94;5134358;27;39020;-87
2022/08/29 07:51:27;;;;;;;4.73;1.97;;;;;;;24.66;43.06;99333.53;5116403;27;40717;-86
2022/08/29 07:53:56;;;;;;;4.30;1.77;;;;;;;25.12;43.58;99356.22;5134212;27;43790;-85
2022/08/29 07:56:26;;;;;;;2.93;1.70;;;;;;;25.45;41.27;99366.94;5115888;27;42356;-82
2022/08/29 07:59:03;;;;;;;3.27;1.63;;;;;;;25.56;42.68;99347.53;5134012;27;41309;-88
2022/08/29 08:01:31;;;;;;;4.33;1.80;;;;;;;25.63;41.27;99351.22;5116189;27;41085;-88
2022/08/29 08:04:02;;;;;;;4.93;1.93;;;;;;;25.85;41.49;99350.38;5116621;27;43258;-87
2022/08/29 08:06:31;;;;;;;2.03;1.43;;;;;;;26.18;40.96;99356.41;5115754;27;42107;-88
2022/08/29 08:08:59;;;;;;;4.63;1.97;;;;;;;26.76;38.72;99368.41;5116899;27;41325;-85
2022/08/29 08:11:27;;;;;;;3.20;1.83;;;;;;;27.34;38.35;99378.41;5116570;27;41480;-84
2022/08/29 08:13:57;;;;;;;4.27;2.20;;;;;;;28.50;36.99;99390.97;5135408;27;42251;-83
2022/08/29 08:16:27;;;;;;;3.33;1.70;;;;;;;29.34;34.35;99409.97;5116677;27;41591;-84
2022/08/29 08:18:56;;;;;;;2.63;1.73;;;;;;;29.90;34.38;99394.25;5116214;27;40040;-84
2022/08/29 08:21:25;;;;;;;3.93;1.90;;;;;;;30.28;34.07;99392.63;5132047;27;41020;-86
2022/08/29 08:23:53;;;;;;;3.23;2.13;;;;;;;31.06;32.60;99401.81;5116228;27;41368;-88
2022/08/29 08:26:21;;;;;;;5.40;2.20;;;;;;;31.63;31.87;99407.56;5115849;27;42681;-86
2022/08/29 08:28:50;;;;;;;3.53;2.03;;;;;;;32.20;30.65;99409.34;5116662;27;40069;-86
2022/08/29 08:31:20;;;;;;;4.93;2.10;;;;;;;33.24;30.02;99433.38;5115354;27;42071;-81
2022/08/29 08:33:47;;;;;;;3.10;2.55;;;;;;;34.40;28.65;99424.84;5133210;27;43149;-87
2022/08/29 08:36:19;;;;;;;3.97;2.25;;;;;;;35.46;26.43;99453.28;5115128;27;41583;-85
2022/08/29 08:38:47;;;;;;;3.55;2.15;;;;;;;36.14;26.31;99455.22;5131351;27;40153;-83
2022/08/29 08:41:40;;;;;;;3.05;2.13;;;;;;;36.54;25.24;99453.22;5114209;27;42006;-81
2022/08/29 08:44:30;;;;;;;3.97;2.03;;;;;;;36.24;24.89;99460.94;5130276;27;43493;-84
2022/08/29 08:47:06;;;;;;;5.22;2.38;;;;;;;35.83;26.05;99451.88;5132286;27;42711;-83
2022/08/29 08:49:41;;;;;;;2.83;2.28;;;;;;;35.37;25.68;99449.19;5133363;27;40159;-83
2022/08/29 08:52:14;;;;;;;2.43;1.90;;;;;;;35.27;26.33;99436.03;5132974;27;40629;-80
2022/08/29 08:54:52;;;;;;;2.42;2.15;;;;;;;35.83;25.82;99435.34;5132946;27;41930;-83
2022/08/29 08:57:21;;;;;;;4.05;2.08;;;;;;;36.71;25.38;99433.09;5131140;27;43255;-82
2022/08/29 08:59:55;;;;;;;3.83;2.42;;;;;;;37.05;24.50;99429.19;5132928;27;41191;-87
2022/08/29 09:02:34;;;;;;;3.83;2.50;;;;;;;37.02;25.10;99435.22;5130910;27;41559;-84
2022/08/29 09:05:18;;;;;;;5.65;2.38;;;;;;;36.92;24.71;99446.97;5115102;27;44410;-79
2022/08/29 09:07:53;;;;;;;3.00;2.33;;;;;;;37.06;24.60;99441.91;5132206;27;42516;-86
2022/08/29 09:10:32;;;;;;;3.40;2.27;;;;;;;36.89;24.35;99430.06;5115569;27;39201;-86
2022/08/29 09:13:10;;;;;;;2.60;2.40;;;;;;;36.29;25.11;99426.03;5115113;27;40630;-86
2022/08/29 09:15:41;;;;;;;5.43;2.33;;;;;;;35.62;25.81;99386.34;5115086;27;41660;-87
2022/08/29 09:18:15;;;;;;;2.67;2.47;;;;;;;35.41;26.36;99425.59;5114560;27;42715;-80
2022/08/29 09:20:42;;;;;;;4.23;2.57;;;;;;;35.14;26.63;99422.50;5128809;27;40896;-84
2022/08/29 09:23:18;;;;;;;3.27;2.17;;;;;;;34.54;27.83;99412.53;5131993;27;42834;-86
2022/08/29 09:25:47;;;;;;;4.13;2.07;;;;;;;34.29;28.36;99420.16;5114982;27;42257;-83
2022/08/29 09:28:15;;;;;;;5.93;2.10;;;;;;;34.10;28.27;99421.28;5132170;27;42377;-85
2022/08/29 09:31:04;;;;;;;5.00;2.30;;;;;;;34.00;28.49;99421.00;5114961;27;38921;-86
2022/08/29 09:33:41;;;;;;;3.63;2.30;;;;;;;33.74;27.98;99425.78;5115176;27;43233;-86
2022/08/29 09:36:13;;;;;;;3.03;2.03;;;;;;;33.63;28.42;99418.28;5115173;27;41778;-86
2022/08/29 09:38:40;;;;;;;3.60;2.30;;;;;;;33.74;28.23;99403.78;5115150;27;42044;-86
2022/08/29 09:41:09;;;;;;;6.47;2.90;;;;;;;34.02;28.34;99418.84;5115002;27;40101;-88
2022/08/29 09:43:47;;;;;;;3.67;2.30;;;;;;;34.10;29.02;99410.28;5132365;27;42740;-83
2022/08/29 09:46:19;;;;;;;4.43;2.23;;;;;;;33.81;28.82;99411.97;5114290;27;41937;-91
2022/08/29 09:48:51;;;;;;;4.37;2.17;;;;;;;33.76;28.95;99409.91;5114755;27;41384;-84
2022/08/29 09:51:27;;;;;;;3.60;2.27;;;;;;;33.75;29.01;99401.88;5114226;27;39675;-83
2022/08/29 09:54:11;;;;;;;3.43;2.50;;;;;;;33.70;28.49;99391.59;5131878;27;42687;-83
2022/08/29 09:56:47;;;;;;;3.23;2.30;;;;;;;33.25;28.88;99373.81;5117815;27;42846;-87
2022/08/29 09:59:24;;;;;;;4.90;2.50;;;;;;;33.16;29.42;99376.81;5136047;27;42566;-84
2022/08/29 10:02:20;;;;;;;5.93;2.80;;;;;;;33.32;29.94;99382.78;5133112;27;39976;-82
2022/08/29 10:04:52;;;;;;;3.90;3.00;;;;;;;33.16;29.37;99363.09;5135914;27;41706;-86
2022/08/29 10:07:23;;;;;;;4.60;3.37;;;;;;;33.05;29.91;99369.34;5117632;27;43272;-89
2022/08/29 10:09:59;;;;;;;2.77;2.40;;;;;;;33.04;30.58;99369.56;5118514;27;42370;-86
2022/08/29 10:12:36;;;;;;;4.13;2.80;;;;;;;33.24;30.29;99380.38;5117995;27;39118;-87
2022/08/29 10:15:09;;;;;;;4.63;2.93;;;;;;;33.71;29.48;99375.94;5118277;27;40385;-88
2022/08/29 10:20:36;;;;;;;3.33;2.63;;;;;;;33.64;30.33;99356.78;5108283;27;42362;-86
2022/08/29 10:23:11;;;;;;;5.03;2.80;;;;;;;33.48;30.54;99351.97;5135022;27;39086;-84
2022/08/29 10:25:41;;;;;;;3.93;2.90;;;;;;;33.71;29.54;99363.03;5131921;27;41739;-82
2022/08/29 10:28:20;;;;;;;5.20;2.70;;;;;;;34.10;28.76;99360.78;5134108;27;42730;-82
2022/08/29 10:30:57;;;;;;;3.80;2.53;;;;;;;34.50;28.41;99361.81;5134336;27;44325;-82
2022/08/29 10:33:41;;;;;;;4.77;2.60;;;;;;;34.83;27.27;99375.03;5134880;27;40878;-83
2022/08/29 10:36:15;;;;;;;4.13;2.50;;;;;;;34.88;27.63;99368.78;5134745;27;41163;-84
2022/08/29 10:38:47;;;;;;;5.10;2.23;;;;;;;35.14;26.76;99386.69;5134670;27;41604;-86
2022/08/29 10:41:28;;;;;;;5.70;2.47;;;;;;;35.11;27.37;99373.44;5131200;27;42230;-87
2022/08/29 10:44:07;;;;;;;2.43;2.13;;;;;;;35.60;27.42;99383.88;5117413;27;40860;-86
2022/08/29 10:46:53;;;;;;;4.80;2.37;;;;;;;36.20;25.44;99408.19;5131613;27;41762;-84
2022/08/29 10:49:35;;;;;;;3.83;2.40;;;;;;;36.98;24.19;99409.19;5135240;27;43214;-87
2022/08/29 10:52:14;;;;;;;3.83;2.67;;;;;;;37.66;24.00;99396.88;5134047;27;41470;-85
2022/08/29 10:54:53;;;;;;;2.47;2.08;;;;;;;37.78;23.22;99411.41;5117754;27;40162;-85
2022/08/29 10:57:40;;;;;;;3.60;2.17;;;;;;;37.13;22.96;99403.88;5116651;27;43356;-87
2022/08/29 11:00:11;;;;;;;2.77;2.20;;;;;;;36.85;24.26;99395.75;5117822;27;42751;-85
2022/08/29 11:02:44;;;;;;;3.73;2.03;;;;;;;36.94;23.75;99388.72;5134669;27;41314;-87
2022/08/29 11:05:18;;;;;;;3.73;2.10;;;;;;;37.22;23.49;99402.38;5117615;27;39105;-90
2022/08/29 11:07:53;;;;;;;2.53;2.10;;;;;;;37.52;23.47;99403.88;5117093;27;41469;-85
2022/08/29 11:10:25;;;;;;;3.80;2.27;;;;;;;37.72;23.58;99388.38;5131274;27;42566;-85
2022/08/29 11:12:56;;;;;;;2.30;2.10;;;;;;;37.86;22.17;99413.69;5116989;27;41220;-84
2022/08/29 11:15:28;;;;;;;3.03;2.07;;;;;;;38.03;21.19;99417.22;5116419;27;40026;-86
2022/08/29 11:18:03;;;;;;;2.20;2.00;;;;;;;38.70;22.19;99400.13;5134187;27;41717;-87
2022/08/29 11:20:36;;;;;;;9.32;2.42;;;;;;;39.22;21.40;99396.59;5133408;27;41836;-86
2022/08/29 11:23:11;;;;;;;4.10;1.95;;;;;;;39.29;22.33;99366.72;5116829;27;41750;-87
2022/08/29 11:25:40;;;;;;;4.07;2.15;;;;;;;39.80;21.76;99391.88;5133727;27;38787;-87
2022/08/29 11:28:20;;;;;;;3.80;2.30;;;;;;;39.91;20.64;99389.97;5116378;27;40540;-85
2022/08/29 11:30:54;;;;;;;3.63;2.55;;;;;;;39.86;21.17;99393.56;5132801;27;43103;-82
2022/08/29 11:33:35;;;;;;;3.25;2.33;;;;;;;39.56;21.37;99376.81;5134090;27;42221;-89
2022/08/29 11:36:20;;;;;;;2.00;1.77;;;;;;;40.12;20.44;99384.19;5116603;27;39338;-86
2022/08/29 11:39:07;;;;;;;2.97;2.22;;;;;;;40.97;19.88;99376.09;5131029;27;42722;-87
2022/08/29 11:41:37;;;;;;;3.45;2.33;;;;;;;41.15;18.89;99378.31;5116315;27;41629;-86
2022/08/29 11:44:14;;;;;;;2.95;2.35;;;;;;;41.43;18.90;99376.78;5134225;27;41257;-84
2022/08/29 11:46:44;;;;;;;4.05;2.25;;;;;;;42.24;19.04;99379.13;5133544;27;40141;-88
2022/08/29 11:49:40;;;;;;;2.60;2.10;;;;;;;42.93;18.23;99389.13;5116973;27;42048;-87
2022/08/29 11:52:25;;;;;;;3.55;2.25;;;;;;;43.15;18.44;99354.31;5044962;27;43358;-85
2022/08/29 11:55:21;;;;;;;3.63;2.33;;;;;;;43.27;18.05;99349.19;5133687;27;41246;-85
2022/08/29 11:57:55;;;;;;;2.90;2.30;;;;;;;44.20;17.91;99367.94;5116206;27;40392;-79